createdAt,value
2017-12-19T00:00:30.994Z,4.00
2017-12-19T00:01:31.199Z,4.00
2017-12-19T00:02:30.715Z,4.00
2017-12-19T00:03:30.750Z,4.00
2017-12-19T00:04:30.767Z,4.00
2017-12-19T00:05:30.795Z,4.00
2017-12-19T00:06:31.234Z,4.00
2017-12-19T00:07:30.962Z,4.00
2017-12-19T00:08:30.880Z,4.00
2017-12-19T00:09:30.983Z,4.00
2017-12-19T00:10:30.949Z,4.00
2017-12-19T00:11:30.980Z,4.00
2017-12-19T00:12:31.319Z,4.00
2017-12-19T00:13:31.098Z,4.00
2017-12-19T00:14:31.064Z,4.00
2017-12-19T00:15:31.099Z,4.00
2017-12-19T00:17:31.813Z,4.00
2017-12-19T00:18:31.223Z,4.00
2017-12-19T00:19:31.533Z,4.00
2017-12-19T00:20:31.261Z,4.00
2017-12-19T00:21:31.297Z,4.00
2017-12-19T00:22:31.313Z,4.00
2017-12-19T00:23:31.397Z,4.00
2017-12-19T00:24:31.370Z,4.00
2017-12-19T00:25:31.704Z,8.00
2017-12-19T00:26:31.446Z,8.00
2017-12-19T00:27:31.467Z,0.00
2017-12-19T00:28:31.497Z,0.00
2017-12-19T00:29:31.584Z,0.00
2017-12-19T00:30:31.566Z,0.00
2017-12-19T00:31:31.892Z,0.00
2017-12-19T00:32:31.620Z,0.00
2017-12-19T00:33:31.651Z,0.00
2017-12-19T00:34:31.853Z,0.00
2017-12-19T00:35:31.727Z,0.00
2017-12-19T00:36:31.813Z,0.00
2017-12-19T00:37:31.791Z,0.00
2017-12-19T00:38:32.117Z,0.00
2017-12-19T00:39:31.842Z,0.00
2017-12-19T00:40:31.922Z,0.00
2017-12-19T00:41:31.928Z,0.00
2017-12-19T00:42:31.925Z,0.00
2017-12-19T00:43:31.958Z,0.00
2017-12-19T00:44:32.008Z,0.00
2017-12-19T00:45:32.315Z,0.00
2017-12-19T00:46:32.103Z,0.00
2017-12-19T00:47:32.092Z,0.00
2017-12-19T00:48:32.103Z,0.00
2017-12-19T00:49:32.149Z,0.00
2017-12-19T00:50:32.272Z,0.00
2017-12-19T00:51:32.200Z,0.00
2017-12-19T00:52:32.526Z,0.00
2017-12-19T00:53:32.286Z,0.00
2017-12-19T00:54:32.313Z,0.00
2017-12-19T00:55:32.367Z,0.00
2017-12-19T00:56:32.517Z,0.00
2017-12-19T00:57:32.402Z,0.00
2017-12-19T00:58:32.467Z,0.00
2017-12-19T00:59:32.752Z,0.00
2017-12-19T01:00:32.473Z,0.00
2017-12-19T01:01:32.518Z,0.00
2017-12-19T01:02:32.790Z,0.00
2017-12-19T01:03:32.574Z,0.00
2017-12-19T01:04:32.598Z,0.00
2017-12-19T01:05:32.642Z,0.00
2017-12-19T01:06:32.962Z,0.00
2017-12-19T01:07:32.711Z,0.00
2017-12-19T01:08:32.925Z,0.00
2017-12-19T01:09:32.756Z,0.00
2017-12-19T01:10:32.780Z,0.00
2017-12-19T01:11:32.816Z,0.00
2017-12-19T01:12:32.859Z,0.00
2017-12-19T01:13:33.179Z,0.00
2017-12-19T01:14:32.964Z,0.00
2017-12-19T01:15:32.937Z,0.00
2017-12-19T01:16:32.970Z,0.00
2017-12-19T01:17:32.999Z,0.00
2017-12-19T01:18:33.028Z,0.00
2017-12-19T01:19:33.106Z,0.00
2017-12-19T01:20:33.441Z,0.00
2017-12-19T01:21:33.127Z,0.00
2017-12-19T01:22:33.155Z,0.00
2017-12-19T01:23:33.183Z,0.00
2017-12-19T01:24:33.515Z,0.00
2017-12-19T01:25:33.270Z,0.00
2017-12-19T01:26:33.275Z,0.00
2017-12-19T01:27:33.604Z,0.00
2017-12-19T01:28:33.350Z,0.00
2017-12-19T01:29:33.370Z,0.00
2017-12-19T01:30:33.642Z,0.00
2017-12-19T01:31:33.439Z,0.00
2017-12-19T01:32:33.457Z,0.00
2017-12-19T01:33:33.484Z,0.00
2017-12-19T01:34:33.814Z,0.00
2017-12-19T01:35:33.550Z,0.00
2017-12-19T01:36:33.638Z,0.00
2017-12-19T01:37:33.608Z,0.00
2017-12-19T01:38:33.651Z,0.00
2017-12-19T01:39:33.673Z,0.00
2017-12-19T01:40:33.705Z,0.00
2017-12-19T01:41:34.051Z,0.00
2017-12-19T01:42:33.778Z,0.00
2017-12-19T01:43:33.797Z,0.00
2017-12-19T01:44:33.880Z,0.00
2017-12-19T01:45:33.856Z,0.00
2017-12-19T01:46:33.890Z,0.00
2017-12-19T01:47:33.926Z,0.00
2017-12-19T01:48:34.267Z,0.00
2017-12-19T01:49:33.984Z,0.00
2017-12-19T01:50:34.013Z,0.00
2017-12-19T01:51:34.032Z,0.00
2017-12-19T01:52:34.064Z,0.00
2017-12-19T01:53:34.106Z,0.00
2017-12-19T01:54:34.460Z,0.00
2017-12-19T01:55:34.320Z,0.00
2017-12-19T01:56:34.201Z,0.00
2017-12-19T01:57:34.230Z,0.00
2017-12-19T01:58:34.281Z,0.00
2017-12-19T01:59:34.365Z,0.00
2017-12-19T02:00:35.081Z,0.00
2017-12-19T02:01:34.350Z,0.00
2017-12-19T02:02:34.372Z,0.00
2017-12-19T02:03:34.407Z,0.00
2017-12-19T02:04:34.439Z,0.00
2017-12-19T02:05:34.565Z,0.00
2017-12-19T02:06:34.489Z,0.00
2017-12-19T02:07:34.832Z,0.00
2017-12-19T02:08:34.570Z,0.00
2017-12-19T02:09:35.071Z,0.00
2017-12-19T02:10:34.617Z,0.00
2017-12-19T02:11:34.866Z,0.00
2017-12-19T02:12:34.694Z,0.00
2017-12-19T02:13:35.005Z,0.00
2017-12-19T02:14:34.760Z,0.00
2017-12-19T02:16:34.803Z,0.00
2017-12-19T02:17:34.950Z,0.00
2017-12-19T02:18:34.909Z,0.00
2017-12-19T02:19:35.204Z,0.00
2017-12-19T02:20:35.384Z,0.00
2017-12-19T02:21:34.950Z,0.00
2017-12-19T02:22:34.996Z,0.00
2017-12-19T02:23:35.010Z,0.00
2017-12-19T02:24:35.057Z,0.00
2017-12-19T02:25:35.381Z,0.00
2017-12-19T02:26:35.159Z,0.00
2017-12-19T02:27:35.134Z,0.00
2017-12-19T02:28:35.166Z,0.00
2017-12-19T02:29:35.231Z,0.00
2017-12-19T02:30:35.375Z,0.00
2017-12-19T02:31:35.614Z,0.00
2017-12-19T02:32:35.298Z,0.00
2017-12-19T02:33:35.322Z,0.00
2017-12-19T02:34:35.354Z,0.00
2017-12-19T02:35:35.372Z,0.00
2017-12-19T02:36:35.486Z,0.00
2017-12-19T02:37:35.785Z,0.00
2017-12-19T02:38:35.475Z,0.00
2017-12-19T02:39:35.502Z,0.00
2017-12-19T02:40:35.539Z,0.00
2017-12-19T02:41:35.650Z,0.00
2017-12-19T02:42:35.606Z,0.00
2017-12-19T02:43:35.923Z,0.00
2017-12-19T02:44:35.660Z,0.00
2017-12-19T02:46:35.932Z,0.00
2017-12-19T02:49:36.219Z,0.00
2017-12-19T02:50:35.855Z,0.00
2017-12-19T02:51:35.861Z,0.00
2017-12-19T02:52:35.898Z,0.00
2017-12-19T02:53:35.927Z,0.00
2017-12-19T02:54:35.984Z,0.00
2017-12-19T02:55:36.638Z,0.00
2017-12-19T02:56:36.042Z,0.00
2017-12-19T02:57:36.044Z,0.00
2017-12-19T02:58:36.079Z,0.00
2017-12-19T02:59:36.117Z,0.00
2017-12-19T03:00:36.137Z,0.00
2017-12-19T03:01:36.516Z,0.00
2017-12-19T03:02:36.207Z,0.00
2017-12-19T03:03:36.243Z,0.00
2017-12-19T03:04:36.265Z,0.00
2017-12-19T03:05:36.302Z,0.00
2017-12-19T03:06:36.342Z,0.00
2017-12-19T03:07:36.654Z,0.00
2017-12-19T03:08:36.388Z,0.00
2017-12-19T03:09:36.610Z,0.00
2017-12-19T03:10:36.448Z,0.00
2017-12-19T03:11:36.473Z,0.00
2017-12-19T03:12:36.503Z,0.00
2017-12-19T03:13:36.561Z,0.00
2017-12-19T03:14:36.874Z,0.00
2017-12-19T03:15:36.695Z,0.00
2017-12-19T03:16:36.643Z,0.00
2017-12-19T03:17:36.662Z,0.00
2017-12-19T03:18:36.690Z,0.00
2017-12-19T03:19:36.714Z,0.00
2017-12-19T03:20:36.747Z,0.00
2017-12-19T03:21:37.150Z,0.00
2017-12-19T03:22:36.829Z,0.00
2017-12-19T03:23:36.836Z,0.00
2017-12-19T03:24:36.867Z,0.00
2017-12-19T03:25:36.953Z,0.00
2017-12-19T03:26:36.929Z,0.00
2017-12-19T03:27:36.972Z,0.00
2017-12-19T03:28:37.291Z,0.00
2017-12-19T03:29:37.023Z,0.00
2017-12-19T03:30:37.072Z,0.00
2017-12-19T03:31:37.249Z,0.00
2017-12-19T03:32:37.117Z,0.00
2017-12-19T03:33:37.153Z,0.00
2017-12-19T03:34:37.175Z,0.00
2017-12-19T03:35:37.563Z,0.00
2017-12-19T03:36:37.239Z,0.00
2017-12-19T03:37:37.326Z,0.00
2017-12-19T03:38:37.301Z,0.00
2017-12-19T03:39:37.325Z,0.00
2017-12-19T03:40:37.359Z,0.00
2017-12-19T03:41:37.388Z,0.00
2017-12-19T03:42:37.730Z,0.00
2017-12-19T03:43:37.495Z,0.00
2017-12-19T03:44:37.486Z,0.00
2017-12-19T03:45:37.505Z,0.00
2017-12-19T03:46:37.536Z,0.00
2017-12-19T03:47:37.565Z,0.00
2017-12-19T03:48:37.603Z,0.00
2017-12-19T03:49:38.014Z,0.00
2017-12-19T03:50:37.659Z,0.00
2017-12-19T03:51:37.950Z,0.00
2017-12-19T03:52:37.722Z,0.00
2017-12-19T03:53:37.765Z,0.00
2017-12-19T03:54:37.808Z,0.00
2017-12-19T03:55:37.816Z,0.00
2017-12-19T03:56:38.156Z,0.00
2017-12-19T03:57:37.982Z,0.00
2017-12-19T03:58:37.906Z,0.00
2017-12-19T03:59:37.945Z,0.00
2017-12-19T04:00:37.980Z,0.00
2017-12-19T04:01:38.004Z,0.00
2017-12-19T04:02:38.039Z,0.00
2017-12-19T04:03:38.407Z,0.00
2017-12-19T04:04:38.096Z,0.00
2017-12-19T04:05:38.118Z,0.00
2017-12-19T04:06:38.156Z,0.00
2017-12-19T04:07:38.242Z,0.00
2017-12-19T04:08:38.374Z,0.00
2017-12-19T04:09:38.451Z,0.00
2017-12-19T04:10:38.576Z,0.00
2017-12-19T04:11:38.298Z,0.00
2017-12-19T04:12:38.336Z,0.00
2017-12-19T04:13:38.360Z,0.00
2017-12-19T04:14:38.446Z,0.00
2017-12-19T04:15:38.422Z,0.00
2017-12-19T04:16:38.466Z,0.00
2017-12-19T04:17:38.791Z,0.00
2017-12-19T04:18:38.515Z,0.00
2017-12-19T04:20:38.627Z,0.00
2017-12-19T04:21:38.612Z,0.00
2017-12-19T04:22:38.648Z,0.00
2017-12-19T04:23:38.839Z,0.00
2017-12-19T04:24:39.000Z,0.00
2017-12-19T04:25:38.729Z,0.00
2017-12-19T04:26:38.755Z,0.00
2017-12-19T04:27:38.786Z,0.00
2017-12-19T04:29:38.961Z,0.00
2017-12-19T04:30:38.903Z,0.00
2017-12-19T04:31:39.218Z,0.00
2017-12-19T04:32:38.953Z,0.00
2017-12-19T04:33:38.983Z,0.00
2017-12-19T04:34:39.011Z,0.00
2017-12-19T04:35:39.081Z,0.00
2017-12-19T04:36:39.156Z,0.00
2017-12-19T04:37:39.406Z,0.00
2017-12-19T04:38:39.133Z,0.00
2017-12-19T04:39:39.249Z,0.00
2017-12-19T04:40:39.190Z,0.00
2017-12-19T04:41:39.217Z,0.00
2017-12-19T04:42:39.302Z,0.00
2017-12-19T04:43:39.630Z,0.00
2017-12-19T04:44:39.318Z,0.00
2017-12-19T04:45:39.598Z,0.00
2017-12-19T04:46:39.374Z,0.00
2017-12-19T04:47:39.398Z,0.00
2017-12-19T04:48:39.432Z,0.00
2017-12-19T04:49:39.767Z,0.00
2017-12-19T04:50:39.558Z,0.00
2017-12-19T04:51:39.721Z,0.00
2017-12-19T04:52:39.574Z,0.00
2017-12-19T04:53:39.595Z,0.00
2017-12-19T04:54:39.658Z,0.00
2017-12-19T04:55:39.986Z,0.00
2017-12-19T04:56:39.678Z,0.00
2017-12-19T04:57:39.811Z,0.00
2017-12-19T04:58:39.750Z,0.00
2017-12-19T04:59:39.774Z,0.00
2017-12-19T05:00:39.811Z,0.00
2017-12-19T05:01:40.140Z,0.00
2017-12-19T05:02:39.873Z,0.00
2017-12-19T05:03:40.041Z,0.00
2017-12-19T05:04:39.935Z,0.00
2017-12-19T05:05:39.970Z,0.00
2017-12-19T05:06:39.994Z,0.00
2017-12-19T05:07:40.323Z,0.00
2017-12-19T05:08:40.064Z,0.00
2017-12-19T05:09:40.175Z,0.00
2017-12-19T05:10:40.154Z,0.00
2017-12-19T05:11:40.187Z,0.00
2017-12-19T05:12:40.200Z,0.00
2017-12-19T05:13:40.507Z,0.00
2017-12-19T05:14:40.326Z,0.00
2017-12-19T05:15:40.289Z,0.00
2017-12-19T05:16:40.293Z,0.00
2017-12-19T05:17:40.372Z,0.00
2017-12-19T05:18:40.370Z,0.00
2017-12-19T05:19:40.693Z,0.00
2017-12-19T05:20:40.538Z,0.00
2017-12-19T05:21:40.474Z,0.00
2017-12-19T05:22:40.484Z,0.00
2017-12-19T05:23:40.507Z,0.00
2017-12-19T05:24:40.543Z,0.00
2017-12-19T05:25:41.005Z,0.00
2017-12-19T05:26:40.646Z,0.00
2017-12-19T05:27:40.746Z,0.00
2017-12-19T05:28:40.687Z,0.00
2017-12-19T05:29:40.690Z,0.00
2017-12-19T05:30:41.045Z,0.00
2017-12-19T05:31:41.042Z,0.00
2017-12-19T05:32:40.776Z,0.00
2017-12-19T05:33:40.816Z,0.00
2017-12-19T05:34:40.833Z,0.00
2017-12-19T05:35:40.876Z,0.00
2017-12-19T05:36:41.101Z,0.00
2017-12-19T05:37:41.225Z,0.00
2017-12-19T05:38:40.973Z,0.00
2017-12-19T05:39:40.993Z,0.00
2017-12-19T05:40:41.021Z,0.00
2017-12-19T05:41:41.119Z,0.00
2017-12-19T05:42:41.076Z,0.00
2017-12-19T05:43:41.105Z,0.00
2017-12-19T05:44:41.496Z,0.00
2017-12-19T05:45:41.197Z,0.00
2017-12-19T05:46:41.263Z,0.00
2017-12-19T05:47:41.242Z,0.00
2017-12-19T05:48:41.296Z,0.00
2017-12-19T05:49:41.288Z,0.00
2017-12-19T05:50:41.323Z,0.00
2017-12-19T05:51:41.942Z,0.00
2017-12-19T05:52:41.437Z,0.00
2017-12-19T05:53:41.442Z,0.00
2017-12-19T05:54:41.446Z,0.00
2017-12-19T05:55:41.505Z,0.00
2017-12-19T05:56:41.529Z,0.00
2017-12-19T05:57:41.661Z,0.00
2017-12-19T05:58:41.862Z,0.00
2017-12-19T05:59:41.600Z,0.00
2017-12-19T06:00:41.626Z,0.00
2017-12-19T06:01:41.655Z,0.00
2017-12-19T06:02:41.684Z,0.00
2017-12-19T06:03:41.776Z,0.00
2017-12-19T06:04:41.767Z,0.00
2017-12-19T06:05:42.140Z,0.00
2017-12-19T06:06:41.815Z,0.00
2017-12-19T06:07:41.904Z,0.00
2017-12-19T06:08:42.141Z,0.00
2017-12-19T06:09:41.956Z,0.00
2017-12-19T06:10:41.927Z,0.00
2017-12-19T06:11:41.974Z,0.00
2017-12-19T06:12:42.308Z,0.00
2017-12-19T06:13:42.319Z,0.00
2017-12-19T06:14:42.088Z,0.00
2017-12-19T06:15:42.136Z,0.00
2017-12-19T06:16:42.126Z,0.00
2017-12-19T06:17:42.149Z,0.00
2017-12-19T06:18:42.291Z,0.00
2017-12-19T06:19:42.559Z,0.00
2017-12-19T06:20:42.244Z,0.00
2017-12-19T06:21:42.322Z,0.00
2017-12-19T06:22:42.310Z,0.00
2017-12-19T06:23:42.324Z,0.00
2017-12-19T06:24:42.609Z,0.00
2017-12-19T06:25:42.455Z,0.00
2017-12-19T06:26:42.729Z,0.00
2017-12-19T06:27:42.454Z,0.00
2017-12-19T06:28:42.543Z,0.00
2017-12-19T06:29:42.562Z,0.00
2017-12-19T06:30:42.602Z,0.00
2017-12-19T06:31:42.764Z,0.00
2017-12-19T06:32:42.617Z,0.00
2017-12-19T06:33:43.003Z,0.00
2017-12-19T06:34:42.753Z,0.00
2017-12-19T06:35:42.741Z,0.00
2017-12-19T06:36:42.972Z,0.00
2017-12-19T06:37:42.753Z,0.00
2017-12-19T06:38:42.784Z,0.00
2017-12-19T06:40:43.483Z,0.00
2017-12-19T06:41:42.903Z,0.00
2017-12-19T06:42:43.266Z,0.00
2017-12-19T06:43:43.174Z,0.00
2017-12-19T06:44:43.029Z,0.00
2017-12-19T06:45:43.004Z,0.00
2017-12-19T06:46:43.037Z,0.00
2017-12-19T06:47:43.369Z,0.00
2017-12-19T06:48:43.205Z,0.00
2017-12-19T06:49:43.175Z,0.00
2017-12-19T06:50:43.165Z,0.00
2017-12-19T06:51:43.275Z,0.00
2017-12-19T06:53:43.593Z,0.00
2017-12-19T06:54:43.285Z,0.00
2017-12-19T06:55:43.332Z,0.00
2017-12-19T06:56:43.416Z,0.00
2017-12-19T06:57:43.363Z,0.00
2017-12-19T06:58:43.395Z,0.00
2017-12-19T06:59:43.534Z,0.00
2017-12-19T07:00:43.889Z,0.00
2017-12-19T07:01:43.560Z,0.00
2017-12-19T07:02:43.596Z,0.00
2017-12-19T07:03:43.547Z,0.00
2017-12-19T07:04:43.614Z,0.00
2017-12-19T07:05:43.840Z,0.00
2017-12-19T07:06:44.268Z,0.00
2017-12-19T07:07:43.717Z,0.00
2017-12-19T07:08:43.706Z,0.00
2017-12-19T07:09:43.738Z,0.00
2017-12-19T07:10:43.805Z,0.00
2017-12-19T07:11:44.067Z,4.00
2017-12-19T07:12:44.134Z,4.00
2017-12-19T07:13:43.878Z,0.00
2017-12-19T07:14:43.906Z,4.00
2017-12-19T07:15:44.094Z,4.00
2017-12-19T07:16:43.945Z,4.00
2017-12-19T07:17:44.060Z,8.00
2017-12-19T07:18:44.364Z,8.00
2017-12-19T07:20:44.104Z,8.00
2017-12-19T07:21:44.152Z,8.00
2017-12-19T07:22:44.216Z,12.00
2017-12-19T07:23:44.212Z,12.00
2017-12-19T07:24:44.590Z,16.00
2017-12-19T07:25:44.219Z,16.00
2017-12-19T07:26:44.800Z,20.00
2017-12-19T07:27:44.292Z,20.00
2017-12-19T07:28:44.564Z,24.00
2017-12-19T07:29:44.476Z,24.00
2017-12-19T07:30:44.675Z,28.00
2017-12-19T07:31:44.616Z,28.00
2017-12-19T07:32:44.464Z,28.00
2017-12-19T07:33:44.488Z,24.00
2017-12-19T07:34:44.505Z,24.00
2017-12-19T07:35:44.584Z,28.00
2017-12-19T07:36:44.898Z,32.00
2017-12-19T07:37:44.982Z,32.00
2017-12-19T07:38:44.760Z,32.00
2017-12-19T07:39:44.660Z,40.00
2017-12-19T07:40:44.709Z,44.00
2017-12-19T07:41:44.808Z,44.00
2017-12-19T07:42:45.164Z,44.00
2017-12-19T07:43:45.077Z,44.00
2017-12-19T07:44:44.825Z,48.00
2017-12-19T07:45:44.878Z,52.00
2017-12-19T07:46:44.880Z,60.00
2017-12-19T07:47:44.898Z,68.00
2017-12-19T07:48:45.328Z,72.00
2017-12-19T07:49:44.951Z,76.00
2017-12-19T07:50:44.982Z,84.00
2017-12-19T07:51:45.045Z,92.00
2017-12-19T07:52:45.062Z,104.00
2017-12-19T07:53:45.294Z,112.00
2017-12-19T07:54:45.554Z,116.00
2017-12-19T07:55:45.139Z,120.00
2017-12-19T07:56:45.201Z,116.00
2017-12-19T07:57:45.230Z,124.00
2017-12-19T07:58:45.361Z,124.00
2017-12-19T07:59:45.262Z,128.00
2017-12-19T08:00:45.707Z,140.00
2017-12-19T08:01:45.364Z,136.00
2017-12-19T08:02:45.379Z,144.00
2017-12-19T08:03:45.760Z,148.00
2017-12-19T08:04:45.426Z,152.00
2017-12-19T08:05:45.450Z,160.00
2017-12-19T08:06:46.020Z,168.00
2017-12-19T08:07:45.703Z,176.00
2017-12-19T08:08:45.577Z,176.00
2017-12-19T08:09:45.566Z,176.00
2017-12-19T08:10:45.609Z,180.00
2017-12-19T08:11:45.692Z,188.00
2017-12-19T08:12:45.651Z,192.00
2017-12-19T08:13:46.000Z,200.00
2017-12-19T08:14:45.756Z,204.00
2017-12-19T08:15:45.842Z,208.00
2017-12-19T08:16:45.794Z,216.00
2017-12-19T08:17:45.919Z,240.00
2017-12-19T08:18:46.022Z,272.00
2017-12-19T08:19:45.948Z,292.00
2017-12-19T08:20:46.244Z,308.00
2017-12-19T08:21:45.980Z,336.00
2017-12-19T08:22:46.096Z,360.00
2017-12-19T08:23:46.182Z,372.00
2017-12-19T08:24:46.172Z,396.00
2017-12-19T08:25:46.125Z,420.00
2017-12-19T08:26:46.147Z,440.00
2017-12-19T08:27:46.443Z,452.00
2017-12-19T08:28:46.149Z,472.00
2017-12-19T08:29:46.293Z,484.00
2017-12-19T08:30:46.320Z,512.00
2017-12-19T08:31:46.246Z,540.00
2017-12-19T08:32:46.268Z,544.00
2017-12-19T08:33:46.358Z,572.00
2017-12-19T08:34:46.644Z,576.00
2017-12-19T08:35:46.423Z,576.00
2017-12-19T08:36:46.409Z,596.00
2017-12-19T08:37:46.429Z,608.00
2017-12-19T08:38:46.450Z,624.00
2017-12-19T08:39:46.484Z,648.00
2017-12-19T08:40:47.323Z,688.00
2017-12-19T08:41:46.566Z,724.00
2017-12-19T08:42:46.652Z,728.00
2017-12-19T08:43:46.621Z,724.00
2017-12-19T08:44:46.655Z,732.00
2017-12-19T08:45:46.768Z,736.00
2017-12-19T08:46:47.282Z,748.00
2017-12-19T08:47:46.748Z,752.00
2017-12-19T08:48:47.008Z,752.00
2017-12-19T08:50:46.895Z,756.00
2017-12-19T08:52:47.230Z,652.00
2017-12-19T08:53:46.916Z,628.00
2017-12-19T08:54:46.947Z,640.00
2017-12-19T08:55:46.976Z,664.00
2017-12-19T08:56:47.010Z,676.00
2017-12-19T08:57:47.043Z,700.00
2017-12-19T08:58:47.363Z,748.00
2017-12-19T08:59:47.412Z,808.00
2017-12-19T09:00:47.145Z,872.00
2017-12-19T09:01:47.174Z,924.00
2017-12-19T09:02:47.203Z,924.00
2017-12-19T09:03:47.236Z,912.00
2017-12-19T09:04:47.305Z,900.00
2017-12-19T09:05:47.353Z,888.00
2017-12-19T09:06:47.769Z,840.00
2017-12-19T09:07:47.363Z,780.00
2017-12-19T09:08:47.429Z,744.00
2017-12-19T09:09:47.459Z,772.00
2017-12-19T09:10:47.483Z,784.00
2017-12-19T09:11:47.557Z,812.00
2017-12-19T09:12:47.868Z,836.00
2017-12-19T09:13:47.983Z,852.00
2017-12-19T09:14:47.587Z,864.00
2017-12-19T09:15:47.663Z,932.00
2017-12-19T09:16:47.634Z,940.00
2017-12-19T09:17:47.738Z,916.00
2017-12-19T09:18:48.679Z,888.00
2017-12-19T09:19:48.198Z,936.00
2017-12-19T09:20:47.768Z,960.00
2017-12-19T09:21:47.806Z,932.00
2017-12-19T09:22:47.910Z,860.00
2017-12-19T09:23:49.084Z,832.00
2017-12-19T09:24:47.942Z,888.00
2017-12-19T09:26:48.248Z,1096.00
2017-12-19T09:27:48.358Z,1124.00
2017-12-19T09:28:48.049Z,1084.00
2017-12-19T09:29:48.162Z,1096.00
2017-12-19T09:31:48.360Z,1228.00
2017-12-19T09:32:48.158Z,1272.00
2017-12-19T09:33:48.442Z,1228.00
2017-12-19T09:34:48.469Z,1168.00
2017-12-19T09:35:48.581Z,1124.00
2017-12-19T09:36:48.348Z,1148.00
2017-12-19T09:37:49.339Z,1144.00
2017-12-19T09:39:48.673Z,1172.00
2017-12-19T09:40:48.402Z,1232.00
2017-12-19T09:41:48.682Z,1264.00
2017-12-19T09:44:49.646Z,1076.00
2017-12-19T09:46:50.116Z,1072.00
2017-12-19T09:47:49.307Z,1152.00
2017-12-19T09:48:48.768Z,1164.00
2017-12-19T09:49:48.869Z,1188.00
2017-12-19T09:50:48.952Z,1156.00
2017-12-19T09:52:48.789Z,1308.00
2017-12-19T09:53:48.789Z,1388.00
2017-12-19T09:54:48.815Z,1432.00
2017-12-19T09:55:49.109Z,1444.00
2017-12-19T09:56:48.992Z,1368.00
2017-12-19T09:57:48.988Z,1324.00
2017-12-19T09:58:49.289Z,1284.00
2017-12-19T09:59:49.013Z,1216.00
2017-12-19T10:00:51.434Z,1132.00
2017-12-19T10:01:49.156Z,1124.00
2017-12-19T10:02:49.063Z,1112.00
2017-12-19T10:03:49.265Z,1136.00
2017-12-19T10:04:49.399Z,1144.00
2017-12-19T10:05:49.460Z,1068.00
2017-12-19T10:06:49.569Z,1000.00
2017-12-19T10:07:49.359Z,968.00
2017-12-19T10:08:49.275Z,1028.00
2017-12-19T10:09:49.332Z,1112.00
2017-12-19T10:11:49.974Z,1172.00
2017-12-19T10:12:49.360Z,1132.00
2017-12-19T10:13:49.378Z,1068.00
2017-12-19T10:15:49.568Z,992.00
2017-12-19T10:16:49.560Z,964.00
2017-12-19T10:18:50.333Z,992.00
2017-12-19T10:19:51.682Z,1048.00
2017-12-19T10:20:50.249Z,1204.00
2017-12-19T10:21:49.715Z,1352.00
2017-12-19T10:22:49.890Z,1420.00
2017-12-19T10:23:49.821Z,1452.00
2017-12-19T10:24:49.734Z,1360.00
2017-12-19T10:25:50.047Z,1140.00
2017-12-19T10:26:50.927Z,1060.00
2017-12-19T10:27:49.884Z,1052.00
2017-12-19T10:28:51.801Z,1100.00
2017-12-19T10:29:49.981Z,1176.00
2017-12-19T10:30:50.167Z,1220.00
2017-12-19T10:31:50.336Z,1284.00
2017-12-19T10:33:50.346Z,1256.00
2017-12-19T10:34:50.191Z,1140.00
2017-12-19T10:35:50.153Z,1104.00
2017-12-19T10:36:50.227Z,1080.00
2017-12-19T10:37:50.513Z,1072.00
2017-12-19T10:38:51.950Z,1124.00
2017-12-19T10:40:50.257Z,1212.00
2017-12-19T10:41:50.298Z,1224.00
2017-12-19T10:42:50.324Z,1268.00
2017-12-19T10:43:50.504Z,1372.00
2017-12-19T10:44:50.915Z,1376.00
2017-12-19T10:46:50.484Z,1348.00
2017-12-19T10:47:50.471Z,1260.00
2017-12-19T10:48:50.784Z,1252.00
2017-12-19T10:49:50.571Z,1232.00
2017-12-19T10:50:50.597Z,1164.00
2017-12-19T10:51:50.857Z,1212.00
2017-12-19T10:52:50.704Z,1292.00
2017-12-19T10:53:50.818Z,1472.00
2017-12-19T10:54:50.740Z,1548.00
2017-12-19T10:55:51.553Z,1468.00
2017-12-19T10:56:50.732Z,1440.00
2017-12-19T10:57:50.743Z,1392.00
2017-12-19T10:58:51.131Z,1372.00
2017-12-19T11:00:51.595Z,1376.00
2017-12-19T11:01:50.973Z,1204.00
2017-12-19T11:02:51.012Z,1160.00
2017-12-19T11:03:51.247Z,1160.00
2017-12-19T11:06:51.463Z,1092.00
2017-12-19T11:07:51.266Z,1084.00
2017-12-19T11:08:51.573Z,948.00
2017-12-19T11:09:51.653Z,932.00
2017-12-19T11:10:51.181Z,972.00
2017-12-19T11:11:51.488Z,1080.00
2017-12-19T11:12:52.807Z,1124.00
2017-12-19T11:13:51.452Z,1052.00
2017-12-19T11:14:51.335Z,1000.00
2017-12-19T11:15:51.338Z,1004.00
2017-12-19T11:16:51.395Z,1068.00
2017-12-19T11:17:51.377Z,1056.00
2017-12-19T11:18:51.447Z,1008.00
2017-12-19T11:19:52.135Z,976.00
2017-12-19T11:21:51.627Z,844.00
2017-12-19T11:22:51.525Z,948.00
2017-12-19T11:23:52.064Z,1100.00
2017-12-19T11:24:51.851Z,1160.00
2017-12-19T11:25:51.642Z,1228.00
2017-12-19T11:26:52.147Z,1160.00
2017-12-19T11:27:52.732Z,1168.00
2017-12-19T11:28:51.962Z,1156.00
2017-12-19T11:30:52.845Z,1344.00
2017-12-19T11:31:52.573Z,1180.00
2017-12-19T11:32:52.238Z,1096.00
2017-12-19T11:33:51.867Z,1172.00
2017-12-19T11:34:51.897Z,1276.00
2017-12-19T11:35:52.134Z,1308.00
2017-12-19T11:36:52.311Z,1276.00
2017-12-19T11:37:51.999Z,1292.00
2017-12-19T11:38:52.291Z,1272.00
2017-12-19T11:39:52.128Z,1268.00
2017-12-19T11:40:52.416Z,1360.00
2017-12-19T11:41:52.230Z,1496.00
2017-12-19T11:42:52.230Z,1584.00
2017-12-19T11:43:53.565Z,1552.00
2017-12-19T11:45:53.274Z,1376.00
2017-12-19T11:46:52.440Z,1252.00
2017-12-19T11:47:52.350Z,1168.00
2017-12-19T11:48:52.363Z,1164.00
2017-12-19T11:49:52.522Z,1252.00
2017-12-19T11:50:52.593Z,1308.00
2017-12-19T11:51:52.952Z,1360.00
2017-12-19T11:52:52.521Z,1324.00
2017-12-19T11:54:52.625Z,1128.00
2017-12-19T11:55:52.805Z,1100.00
2017-12-19T11:56:52.811Z,1100.00
2017-12-19T11:57:53.080Z,1112.00
2017-12-19T11:58:52.788Z,1240.00
2017-12-19T11:59:52.811Z,1352.00
2017-12-19T12:01:52.732Z,1332.00
2017-12-19T12:02:52.777Z,1564.00
2017-12-19T12:03:53.145Z,1712.00
2017-12-19T12:04:52.943Z,1820.00
2017-12-19T12:05:53.455Z,2120.00
2017-12-19T12:06:54.884Z,2100.00
2017-12-19T12:07:53.024Z,1904.00
2017-12-19T12:08:53.021Z,2024.00
2017-12-19T12:09:53.747Z,2084.00
2017-12-19T12:10:53.124Z,2004.00
2017-12-19T12:11:53.391Z,1996.00
2017-12-19T12:14:53.432Z,2120.00
2017-12-19T12:15:53.387Z,2396.00
2017-12-19T12:16:53.657Z,2524.00
2017-12-19T12:17:54.288Z,2588.00
2017-12-19T12:18:53.511Z,2492.00
2017-12-19T12:19:53.355Z,2496.00
2017-12-19T12:20:53.717Z,2316.00
2017-12-19T12:21:53.483Z,2308.00
2017-12-19T12:22:53.766Z,2524.00
2017-12-19T12:23:53.526Z,2328.00
2017-12-19T12:24:53.784Z,2688.00
2017-12-19T12:25:53.908Z,2920.00
2017-12-19T12:26:53.826Z,2976.00
2017-12-19T12:27:53.752Z,2864.00
2017-12-19T12:28:54.634Z,2896.00
2017-12-19T12:29:53.990Z,2936.00
2017-12-19T12:31:54.966Z,3076.00
2017-12-19T12:32:54.536Z,3112.00
2017-12-19T12:33:54.046Z,3092.00
2017-12-19T12:34:54.396Z,2864.00
2017-12-19T12:35:54.008Z,2720.00
2017-12-19T12:36:53.949Z,2596.00
2017-12-19T12:38:54.986Z,2612.00
2017-12-19T12:39:54.172Z,2456.00
2017-12-19T12:40:54.397Z,2360.00
2017-12-19T12:42:54.172Z,2524.00
2017-12-19T12:43:55.325Z,2560.00
2017-12-19T12:44:54.404Z,2496.00
2017-12-19T12:47:55.762Z,2384.00
2017-12-19T12:48:54.489Z,2580.00
2017-12-19T12:50:54.828Z,2744.00
2017-12-19T12:51:54.594Z,2756.00
2017-12-19T12:52:54.897Z,2832.00
2017-12-19T12:53:55.330Z,2740.00
2017-12-19T12:54:54.575Z,2644.00
2017-12-19T12:55:55.130Z,2588.00
2017-12-19T12:56:54.514Z,2520.00
2017-12-19T12:57:54.882Z,2376.00
2017-12-19T12:58:54.863Z,2412.00
2017-12-19T12:59:56.075Z,2528.00
2017-12-19T13:00:56.246Z,2528.00
2017-12-19T13:01:57.354Z,2588.00
2017-12-19T13:02:55.633Z,2436.00
2017-12-19T13:03:55.118Z,2152.00
2017-12-19T13:05:55.157Z,1896.00
2017-12-19T13:06:55.436Z,1980.00
2017-12-19T13:07:57.588Z,1804.00
2017-12-19T13:08:56.850Z,1660.00
2017-12-19T13:09:55.650Z,1588.00
2017-12-19T13:10:55.577Z,1700.00
2017-12-19T13:11:55.197Z,1644.00
2017-12-19T13:12:56.196Z,1468.00
2017-12-19T13:13:56.359Z,1348.00
2017-12-19T13:14:55.162Z,1084.00
2017-12-19T13:16:55.922Z,1308.00
2017-12-19T13:17:56.316Z,1412.00
2017-12-19T13:21:57.825Z,1088.00
2017-12-19T13:24:55.984Z,1168.00
2017-12-19T13:25:55.580Z,1368.00
2017-12-19T13:27:57.251Z,1328.00
2017-12-19T13:28:56.097Z,1488.00
2017-12-19T13:29:56.725Z,1768.00
2017-12-19T13:30:57.417Z,1896.00
2017-12-19T13:31:55.787Z,2008.00
2017-12-19T13:32:58.300Z,2036.00
2017-12-19T13:33:56.376Z,2032.00
2017-12-19T13:34:56.508Z,1532.00
2017-12-19T13:35:56.862Z,1212.00
2017-12-19T13:36:55.960Z,1264.00
2017-12-19T13:37:57.116Z,1300.00
2017-12-19T13:38:57.180Z,1304.00